Elizabeth — WSN6409 — position and weather

sailwx.info

Track history (hours):
 
Tides and Currents Weather Stations Pressure Air Temp Water Temp Dewpoint Dewpoint Depression Visibility Wind Speed Wind Dir Waves Ship Positions

Elizabeth

Owner: WEEKS MARINE, INC., CRANFORD, NJ. More information available from US FCC via Universal Licensing System and Coast Guard Vessel Documentation Center.

Last reported at 2017-Oct-19 23:30 UTC. Time now 2017-Oct-19 23:54 UTC.
Position N 39°50' W 075°22'.

Length 24 m; draft 3.3 m.

Type: . MMSI: 366939170.

Date/timePositionNaut miles runAvg speedWind from/ knotsBaromVisibWave heightAir tempDewpointWater temp
2017-Oct-19 23:30N 39°50' W 075°22'0 0.0
2017-Oct-19 23:01N 39°50' W 075°22'3 5.3
2017-Oct-19 22:30N 39°48' W 075°25'3 5.4
2017-Oct-19 22:00N 39°49' W 075°22'0 0.0
2017-Oct-19 21:30N 39°49' W 075°22'1 2.2
2017-Oct-19 21:00N 39°50' W 075°23'2 3.6
2017-Oct-19 20:30N 39°48' W 075°25'1 1.4
2017-Oct-19 20:00N 39°49' W 075°24'2 3.9
2017-Oct-19 19:31N 39°50' W 075°22'0 0.5
2017-Oct-19 19:00N 39°50' W 075°21'1 1.6
2017-Oct-19 18:30N 39°50' W 075°22'2 4.1
2017-Oct-19 18:01N 39°48' W 075°25'0 0.2
2017-Oct-19 17:31N 39°48' W 075°25'1 1.6
2017-Oct-19 17:00N 39°49' W 075°24'2 4.0
2017-Oct-19 16:31N 39°50' W 075°22'0 0.4
2017-Oct-19 16:01N 39°49' W 075°22'0 0.4
2017-Oct-19 15:31N 39°50' W 075°22'0 0.4
2017-Oct-19 15:00N 39°49' W 075°22'0 0.0
2017-Oct-19 14:30N 39°49' W 075°22'0 0.0
2017-Oct-19 14:00N 39°49' W 075°22'0 0.0
2017-Oct-19 13:31N 39°49' W 075°22'0 0.0
2017-Oct-19 13:00N 39°49' W 075°22'0 0.0
2017-Oct-19 12:30N 39°49' W 075°22'0 0.0
2017-Oct-19 12:00N 39°49' W 075°22'0 0.0
2017-Oct-19 11:30N 39°49' W 075°22'0 0.1
2017-Oct-19 11:00N 39°49' W 075°22'0 0.3
2017-Oct-19 10:30N 39°50' W 075°22'0 0.2
2017-Oct-19 10:00N 39°50' W 075°22'1 1.9
2017-Oct-19 09:30N 39°49' W 075°23'2 3.6
2017-Oct-19 09:01N 39°49' W 075°25'0 0.0
2017-Oct-19 08:30N 39°49' W 075°25'3 5.2
2017-Oct-19 08:00N 39°50' W 075°22'0 0.0
2017-Oct-19 07:30N 39°50' W 075°22'0 0.0
2017-Oct-19 07:00N 39°50' W 075°22'0 0.0
2017-Oct-19 06:30N 39°50' W 075°22'0 0.0
2017-Oct-19 06:00N 39°50' W 075°22'0 0.0
2017-Oct-19 05:30N 39°50' W 075°22'0 0.0
2017-Oct-19 05:00N 39°50' W 075°22'0 0.0
2017-Oct-19 04:30N 39°50' W 075°22'0 0.0
2017-Oct-19 04:00N 39°50' W 075°22'0 0.0
2017-Oct-19 03:30N 39°50' W 075°22'0 0.0
2017-Oct-19 03:00N 39°50' W 075°22'0 0.2
2017-Oct-19 02:30N 39°50' W 075°22'1 2.8
2017-Oct-19 02:00N 39°49' W 075°23'1 2.9
2017-Oct-19 01:31N 39°48' W 075°25'1 2.6
2017-Oct-19 01:00N 39°49' W 075°24'2 3.1
2017-Oct-19 00:30N 39°50' W 075°22'0 0.1
2017-Oct-19 00:00N 39°50' W 075°22'0 0.0
2017-Oct-18 23:30N 39°50' W 075°22'0 0.0
2017-Oct-18 23:00N 39°50' W 075°22'2 4.6
2017-Oct-18 22:31N 39°49' W 075°24'2 4.6
2017-Oct-18 22:01N 39°49' W 075°22'0 0.1
2017-Oct-18 21:30N 39°49' W 075°22'0 0.0
2017-Oct-18 21:00N 39°49' W 075°22'0 0.0
2017-Oct-18 20:30N 39°49' W 075°22'0 0.0
2017-Oct-18 20:01N 39°49' W 075°22'0 0.0
2017-Oct-18 19:30N 39°49' W 075°22'0 0.4
2017-Oct-18 19:00N 39°50' W 075°22'0 0.2
2017-Oct-18 18:31N 39°50' W 075°22'0 0.3
2017-Oct-18 18:01N 39°49' W 075°22'0 0.3
2017-Oct-18 17:30N 39°50' W 075°22'0 0.2
2017-Oct-18 17:00N 39°50' W 075°22'2 3.1
2017-Oct-18 16:31N 39°49' W 075°24'1 2.7
2017-Oct-18 16:01N 39°48' W 075°25'3 5.2
2017-Oct-18 15:31N 39°50' W 075°22'0 0.8
2017-Oct-18 15:00N 39°50' W 075°22'0 0.0
2017-Oct-18 14:00N 39°50' W 075°22'0 0.0
2017-Oct-18 13:30N 39°50' W 075°22'0 0.0
2017-Oct-18 13:01N 39°50' W 075°22'0 0.0
2017-Oct-18 12:30N 39°50' W 075°22'0 0.0
2017-Oct-18 12:00N 39°50' W 075°22'0 0.0
2017-Oct-18 11:31N 39°50' W 075°22'0 0.0
2017-Oct-18 11:01N 39°50' W 075°22'2 4.1
2017-Oct-18 10:30N 39°49' W 075°24'2 3.7
2017-Oct-18 10:01N 39°50' W 075°22'0 0.6
2017-Oct-18 09:30N 39°49' W 075°22'0 0.4
2017-Oct-18 09:01N 39°50' W 075°22'0 0.1
2017-Oct-18 08:31N 39°50' W 075°22'1 2.8
2017-Oct-18 08:00N 39°49' W 075°23'1 2.8
2017-Oct-18 07:30N 39°48' W 075°25'1 1.9
2017-Oct-18 07:01N 39°49' W 075°24'2 3.8
2017-Oct-18 06:31N 39°50' W 075°22'0 0.1
2017-Oct-18 06:01N 39°50' W 075°22'0 0.0
2017-Oct-18 05:31N 39°50' W 075°22'0 0.0
2017-Oct-18 05:01N 39°50' W 075°22'0 0.0
2017-Oct-18 04:30N 39°50' W 075°22'0 0.0
2017-Oct-18 04:01N 39°50' W 075°22'0 0.0
2017-Oct-18 03:31N 39°50' W 075°22'0 0.0
2017-Oct-18 03:01N 39°50' W 075°22'0 0.0
2017-Oct-18 02:30N 39°50' W 075°22'0 0.0
2017-Oct-18 02:01N 39°50' W 075°22'0 0.0
2017-Oct-18 01:30N 39°50' W 075°22'0 0.0
2017-Oct-18 01:00N 39°50' W 075°22'0 0.0
2017-Oct-18 00:30N 39°50' W 075°22'0 0.1
2017-Oct-18 00:00N 39°50' W 075°22'1 2.6
2017-Oct-17 23:30N 39°49' W 075°23'0 0.8
2017-Oct-17 23:00N 39°49' W 075°23'1 1.0
2017-Oct-17 22:31N 39°49' W 075°23'0 0.5
2017-Oct-17 22:00N 39°49' W 075°24'1 2.7
2017-Oct-17 21:30N 39°48' W 075°25'0 0.4
2017-Oct-17 21:01N 39°48' W 075°25'0 0.3
2017-Oct-17 20:30N 39°48' W 075°26'3 5.5
2017-Oct-17 20:00N 39°50' W 075°23'1 1.4
2017-Oct-17 19:31N 39°50' W 075°22'0 0.1
2017-Oct-17 19:00N 39°50' W 075°22'0 0.0
2017-Oct-17 18:30N 39°50' W 075°22'0 0.0
2017-Oct-17 18:00N 39°50' W 075°22'1 1.7
2017-Oct-17 17:31N 39°49' W 075°23'2 4.2
2017-Oct-17 17:00N 39°48' W 075°25'3 5.9
2017-Oct-17 16:31N 39°50' W 075°22'3 5.9
2017-Oct-17 16:00N 39°48' W 075°25'0 0.0
2017-Oct-17 15:31N 39°48' W 075°25'0 0.0
2017-Oct-17 15:01N 39°48' W 075°25'0 0.0
2017-Oct-17 14:30N 39°48' W 075°25'3 5.7
2017-Oct-17 14:01N 39°50' W 075°22'0 0.4
2017-Oct-17 13:31N 39°49' W 075°22'3 5.8
2017-Oct-17 13:00N 39°48' W 075°25'0 0.0
2017-Oct-17 12:30N 39°48' W 075°25'0 0.0
2017-Oct-17 12:00N 39°48' W 075°25'1 2.4
2017-Oct-17 11:30N 39°49' W 075°24'2 3.5
2017-Oct-17 11:00N 39°49' W 075°22'2 4.8
2017-Oct-17 10:30N 39°49' W 075°25'2 4.4
2017-Oct-17 10:01N 39°50' W 075°22'0 0.9
2017-Oct-17 09:31N 39°49' W 075°22'0 0.4
2017-Oct-17 09:01N 39°50' W 075°22'0 0.6
2017-Oct-17 08:30N 39°50' W 075°22'2 3.2
2017-Oct-17 08:01N 39°49' W 075°24'1 2.3
2017-Oct-17 07:31N 39°48' W 075°25'3 5.3
2017-Oct-17 07:01N 39°50' W 075°22'0 0.9
2017-Oct-17 06:30N 39°50' W 075°22'0 0.1
2017-Oct-17 06:00N 39°50' W 075°22'0 0.0
2017-Oct-17 05:30N 39°50' W 075°22'0 0.0
2017-Oct-17 05:00N 39°50' W 075°22'0 0.0
2017-Oct-17 04:30N 39°50' W 075°22'0 0.0
2017-Oct-17 04:00N 39°50' W 075°22'0 0.0
2017-Oct-17 03:30N 39°50' W 075°22'0 0.0
2017-Oct-17 03:00N 39°50' W 075°22'0 0.0
2017-Oct-17 02:30N 39°50' W 075°22'0 0.0
2017-Oct-17 02:00N 39°50' W 075°22'0 0.0
2017-Oct-17 01:30N 39°50' W 075°22'0 0.0
2017-Oct-17 01:00N 39°50' W 075°22'0 0.0
2017-Oct-17 00:30N 39°50' W 075°22'0 0.0
2017-Oct-17 00:00N 39°50' W 075°22'1 2.7
2017-Oct-16 23:31N 39°49' W 075°23'1 1.9
2017-Oct-16 23:01N 39°50' W 075°22'2 3.7
2017-Oct-16 22:30N 39°49' W 075°24'2 4.0
2017-Oct-16 22:01N 39°50' W 075°22'1 1.1
2017-Oct-16 21:30N 39°49' W 075°22'0 0.0
2017-Oct-16 21:00N 39°49' W 075°22'0 0.0
2017-Oct-16 20:31N 39°49' W 075°22'3 5.7
2017-Oct-16 20:01N 39°48' W 075°25'3 5.7
2017-Oct-16 19:30N 39°49' W 075°22'0 0.4
2017-Oct-16 19:01N 39°50' W 075°22'0 0.0
2017-Oct-16 18:31N 39°50' W 075°22'0 0.5
2017-Oct-16 18:01N 39°50' W 075°22'2 3.8
2017-Oct-16 17:31N 39°49' W 075°24'1 1.6
2017-Oct-16 17:01N 39°48' W 075°25'3 5.8
2017-Oct-16 16:31N 39°50' W 075°22'0 0.0
2017-Oct-16 16:01N 39°50' W 075°22'0 0.0
2017-Oct-16 15:30N 39°50' W 075°22'0 0.0
2017-Oct-16 15:00N 39°50' W 075°22'0 0.0
2017-Oct-16 14:01N 39°50' W 075°22'0 0.0
2017-Oct-16 13:30N 39°50' W 075°22'0 0.0
2017-Oct-16 13:01N 39°50' W 075°22'0 0.0
2017-Oct-16 12:30N 39°50' W 075°22'0 0.0
2017-Oct-16 12:00N 39°50' W 075°22'0 0.0
2017-Oct-16 11:30N 39°50' W 075°22'0 0.0
2017-Oct-16 11:01N 39°50' W 075°22'0 0.0
2017-Oct-16 10:30N 39°50' W 075°22'0 0.0
2017-Oct-16 10:00N 39°50' W 075°22'0 0.0
2017-Oct-16 09:30N 39°50' W 075°22'0 0.0
2017-Oct-16 09:00N 39°50' W 075°22'0 0.1
2017-Oct-16 08:31N 39°50' W 075°22'0 0.2
2017-Oct-16 08:00N 39°50' W 075°22'0 0.2
2017-Oct-16 07:30N 39°50' W 075°22'1 1.4
2017-Oct-16 07:00N 39°50' W 075°23'2 3.5
2017-Oct-16 06:30N 39°49' W 075°24'0 1.0
2017-Oct-16 06:00N 39°48' W 075°25'3 5.6
2017-Oct-16 05:31N 39°50' W 075°22'0 0.0
2017-Oct-16 05:00N 39°50' W 075°22'0 0.0
2017-Oct-16 04:30N 39°50' W 075°22'0 0.0
2017-Oct-16 04:00N 39°50' W 075°22'0 0.0
2017-Oct-16 03:31N 39°50' W 075°22'0 0.0
2017-Oct-16 03:00N 39°50' W 075°22'0 0.0
2017-Oct-16 02:30N 39°50' W 075°22'0 0.0
2017-Oct-16 02:00N 39°50' W 075°22'0 0.0
2017-Oct-16 01:30N 39°50' W 075°22'0 0.0
2017-Oct-16 01:00N 39°50' W 075°22'0 0.0
2017-Oct-16 00:30N 39°50' W 075°22'0 0.0
2017-Oct-16 00:00N 39°50' W 075°22'0 0.0
2017-Oct-15 23:30N 39°50' W 075°22'0 0.0
2017-Oct-15 23:00N 39°50' W 075°22'0 0.0
2017-Oct-15 22:30N 39°50' W 075°22'0 0.4
2017-Oct-15 22:00N 39°50' W 075°21'1 2.6
2017-Oct-15 21:30N 39°49' W 075°23'2 3.9
2017-Oct-15 21:00N 39°48' W 075°25'0 0.4
2017-Oct-15 20:31N 39°48' W 075°25'3 5.6
2017-Oct-15 20:00N 39°50' W 075°22'0 0.7
2017-Oct-15 19:31N 39°50' W 075°22'0 0.0
2017-Oct-15 19:01N 39°50' W 075°22'0 0.0
2017-Oct-15 18:31N 39°50' W 075°22'0 0.0
2017-Oct-15 18:00N 39°50' W 075°22'0 0.0
2017-Oct-15 17:30N 39°50' W 075°22'0 0.0
2017-Oct-15 17:00N 39°50' W 075°22'0 0.0
2017-Oct-15 16:30N 39°50' W 075°22'0 0.0
2017-Oct-15 16:00N 39°50' W 075°22'2 4.6
2017-Oct-15 15:30N 39°49' W 075°24'0 0.7
2017-Oct-15 15:00N 39°48' W 075°25'1 1.1
2017-Oct-15 14:01N 39°49' W 075°24'2 3.4
2017-Oct-15 13:31N 39°50' W 075°22'0 0.7
2017-Oct-15 13:01N 39°50' W 075°22'2 3.9
2017-Oct-15 12:30N 39°49' W 075°24'0 0.7
2017-Oct-15 12:01N 39°49' W 075°25'3 5.0
2017-Oct-15 11:31N 39°50' W 075°22'0 0.1
2017-Oct-15 11:01N 39°50' W 075°22'3 5.4
2017-Oct-15 10:30N 39°48' W 075°25'3 5.3
2017-Oct-15 10:01N 39°50' W 075°22'0 0.3
2017-Oct-15 09:30N 39°49' W 075°22'0 0.0
2017-Oct-15 09:00N 39°49' W 075°22'0 0.4
2017-Oct-15 08:30N 39°50' W 075°22'0 0.0
2017-Oct-15 08:00N 39°50' W 075°22'0 0.0
2017-Oct-15 07:31N 39°50' W 075°22'0 0.0
2017-Oct-15 07:00N 39°50' W 075°22'0 0.0
2017-Oct-15 06:30N 39°50' W 075°22'0 0.0
2017-Oct-15 06:00N 39°50' W 075°22'0 0.0
2017-Oct-15 05:30N 39°50' W 075°22'0 0.0
2017-Oct-15 05:01N 39°50' W 075°22'0 0.9
2017-Oct-15 04:31N 39°50' W 075°22'4 8.9
2017-Oct-15 04:01N 39°51' W 075°16'4 8.8
2017-Oct-15 03:30N 39°53' W 075°11'3 5.9
2017-Oct-15 03:01N 39°54' W 075°08'3 6.0
2017-Oct-15 02:30N 39°57' W 075°08'0 0.2
2017-Oct-15 02:01N 39°57' W 075°08'0 0.0
2017-Oct-15 01:31N 39°57' W 075°08'0 0.0
2017-Oct-15 01:01N 39°57' W 075°08'0 0.0
2017-Oct-15 00:31N 39°57' W 075°08'0 0.0
2017-Oct-15 00:01N 39°57' W 075°08'0 0.0
2017-Oct-14 23:30N 39°57' W 075°08'3 5.0
2017-Oct-14 23:01N 39°55' W 075°08'4 8.6
2017-Oct-14 22:31N 39°52' W 075°12'5 9.7
2017-Oct-14 22:00N 39°51' W 075°18'3 6.1
2017-Oct-14 21:31N 39°50' W 075°22'3 5.0
2017-Oct-14 21:01N 39°48' W 075°25'3 5.7
2017-Oct-14 20:31N 39°50' W 075°22'1 1.6
2017-Oct-14 20:00N 39°49' W 075°23'2 4.2
2017-Oct-14 19:30N 39°48' W 075°25'3 5.8
2017-Oct-14 19:00N 39°50' W 075°22'0 0.0
2017-Oct-14 18:31N 39°50' W 075°22'0 0.0
2017-Oct-14 18:01N 39°50' W 075°22'0 0.0
2017-Oct-14 17:31N 39°50' W 075°22'0 0.0
2017-Oct-14 17:01N 39°50' W 075°22'0 0.0
2017-Oct-14 16:30N 39°50' W 075°22'0 0.0
2017-Oct-14 16:01N 39°50' W 075°22'0 0.0
2017-Oct-14 15:31N 39°50' W 075°22'0 0.0
2017-Oct-14 15:01N 39°50' W 075°22'0 0.0
2017-Oct-14 14:31N 39°50' W 075°22'0 0.0
2017-Oct-14 14:00N 39°50' W 075°22'0 0.1
2017-Oct-14 13:31N 39°50' W 075°22'0 0.6
2017-Oct-14 13:00N 39°49' W 075°22'2 3.8
2017-Oct-14 12:31N 39°49' W 075°24'1 2.0
2017-Oct-14 12:00N 39°48' W 075°25'2 3.2
2017-Oct-14 11:30N 39°49' W 075°24'2 3.4
2017-Oct-14 11:01N 39°50' W 075°22'3 6.6
2017-Oct-14 10:31N 39°48' W 075°25'3 5.8
2017-Oct-14 10:01N 39°50' W 075°22'0 0.9
2017-Oct-14 09:30N 39°49' W 075°22'0 0.0
2017-Oct-14 09:01N 39°49' W 075°22'0 0.0
2017-Oct-14 08:31N 39°49' W 075°22'0 0.5
2017-Oct-14 08:01N 39°50' W 075°22'0 0.0
2017-Oct-14 07:30N 39°50' W 075°22'0 0.0
2017-Oct-14 07:01N 39°50' W 075°22'0 0.0
2017-Oct-14 06:31N 39°50' W 075°22'0 0.0
2017-Oct-14 06:00N 39°50' W 075°22'0 0.0
2017-Oct-14 05:30N 39°50' W 075°22'0 0.0
2017-Oct-14 05:00N 39°50' W 075°22'0 0.0
2017-Oct-14 04:30N 39°50' W 075°22'0 0.0
2017-Oct-14 04:00N 39°50' W 075°22'0 0.0
2017-Oct-14 03:30N 39°50' W 075°22'0 0.0
2017-Oct-14 02:31N 39°50' W 075°22'0 0.0
2017-Oct-14 02:31N 39°50' W 075°22'0 0.0
2017-Oct-14 02:01N 39°50' W 075°22'0 0.0
2017-Oct-14 01:28N 39°50' W 075°22'0 0.0
2017-Oct-14 01:01N 39°50' W 075°22'0 0.0
2017-Oct-14 00:30N 39°50' W 075°22'0 0.0
2017-Oct-14 00:00N 39°50' W 075°22'0 0.0
2017-Oct-13 23:30N 39°50' W 075°22'0 0.0
2017-Oct-13 23:01N 39°50' W 075°22'1 1.7
2017-Oct-13 22:31N 39°50' W 075°23'2 3.1
2017-Oct-13 22:00N 39°49' W 075°24'2 4.4
2017-Oct-13 21:30N 39°49' W 075°22'0 0.0
2017-Oct-13 21:01N 39°49' W 075°22'0 0.4
2017-Oct-13 20:30N 39°50' W 075°22'0 0.0
2017-Oct-13 20:00N 39°50' W 075°22'0 0.0
2017-Oct-13 19:30N 39°50' W 075°22'0 0.0
2017-Oct-13 19:00N 39°50' W 075°22'0 0.0
2017-Oct-13 18:31N 39°50' W 075°22'0 0.0
2017-Oct-13 18:01N 39°50' W 075°22'0 0.0
2017-Oct-13 17:30N 39°50' W 075°22'0 0.0
2017-Oct-13 17:00N 39°50' W 075°22'0 0.0
2017-Oct-13 16:31N 39°50' W 075°22'2 3.3
2017-Oct-13 16:01N 39°49' W 075°24'1 2.6
2017-Oct-13 15:31N 39°48' W 075°25'0 0.4
2017-Oct-13 15:01N 39°48' W 075°25'0 0.2
2017-Oct-13 14:30N 39°48' W 075°25'1 1.2
2017-Oct-13 14:00N 39°49' W 075°24'2 4.5
2017-Oct-13 13:31N 39°50' W 075°22'0 0.1
2017-Oct-13 13:01N 39°50' W 075°22'0 0.2
2017-Oct-13 12:31N 39°50' W 075°22'0 0.0
2017-Oct-13 12:01N 39°50' W 075°22'0 0.0
2017-Oct-13 11:31N 39°50' W 075°22'0 0.0
2017-Oct-13 11:01N 39°50' W 075°22'0 0.4
2017-Oct-13 10:30N 39°49' W 075°22'0 0.4
2017-Oct-13 10:01N 39°50' W 075°22'0 0.0
2017-Oct-13 09:31N 39°50' W 075°22'0 0.0
2017-Oct-13 09:00N 39°50' W 075°22'0 0.0
2017-Oct-13 08:31N 39°50' W 075°22'0 0.0
2017-Oct-13 08:01N 39°50' W 075°22'0 0.0
2017-Oct-13 07:31N 39°50' W 075°22'0 0.0
2017-Oct-13 07:00N 39°50' W 075°22'0 0.0
2017-Oct-13 06:30N 39°50' W 075°22'0 0.0
2017-Oct-13 06:00N 39°50' W 075°22'0 0.0
2017-Oct-13 05:31N 39°50' W 075°22'0 0.0
2017-Oct-13 05:00N 39°50' W 075°22'0 0.0
2017-Oct-13 04:30N 39°50' W 075°22'0 0.0
2017-Oct-13 04:01N 39°50' W 075°22'0 0.0
2017-Oct-13 03:30N 39°50' W 075°22'0 0.0
2017-Oct-13 03:00N 39°50' W 075°22'0 0.0
2017-Oct-13 02:30N 39°50' W 075°22'0 0.0
2017-Oct-13 02:01N 39°50' W 075°22'0 0.0
2017-Oct-13 01:31N 39°50' W 075°22'0 0.0
2017-Oct-13 01:01N 39°50' W 075°22'0 0.0
2017-Oct-13 00:31N 39°50' W 075°22'0 0.0
2017-Oct-13 00:01N 39°50' W 075°22'0 0.0
2017-Oct-12 23:31N 39°50' W 075°22'0 0.0
2017-Oct-12 23:01N 39°50' W 075°22'0 0.0
2017-Oct-12 22:30N 39°50' W 075°22'0 0.0
2017-Oct-12 22:01N 39°50' W 075°22'0 0.3
2017-Oct-12 21:31N 39°50' W 075°22'2 3.2
2017-Oct-12 21:01N 39°51' W 075°21'2 4.3
2017-Oct-12 20:31N 39°51' W 075°18'2 4.5
2017-Oct-12 20:00N 39°51' W 075°15'3 5.2
2017-Oct-12 19:31N 39°53' W 075°12'3 5.1
2017-Oct-12 19:01N 39°53' W 075°09'3 5.2
2017-Oct-12 18:31N 39°56' W 075°08'2 3.6
2017-Oct-12 18:01N 39°57' W 075°08'0 0.0
2017-Oct-12 17:31N 39°57' W 075°08'0 0.0
2017-Oct-12 17:01N 39°57' W 075°08'0 0.0
2017-Oct-12 16:31N 39°57' W 075°08'0 0.0
2017-Oct-12 16:01N 39°57' W 075°08'0 0.0
2017-Oct-12 15:31N 39°57' W 075°08'0 0.0
2017-Oct-12 15:01N 39°57' W 075°08'0 0.0
2017-Oct-12 14:31N 39°57' W 075°08'0 0.0
2017-Oct-12 14:01N 39°57' W 075°08'0 0.0
2017-Oct-12 13:31N 39°57' W 075°08'0 0.0
2017-Oct-12 13:01N 39°57' W 075°08'0 0.0
2017-Oct-12 12:31N 39°57' W 075°08'0 0.1
2017-Oct-12 12:01N 39°57' W 075°08'0 0.0
2017-Oct-12 11:31N 39°57' W 075°08'0 0.0
2017-Oct-12 11:01N 39°57' W 075°08'0 0.1
2017-Oct-12 10:31N 39°57' W 075°08'0 0.0
2017-Oct-12 10:00N 39°57' W 075°08'0 0.0
2017-Oct-12 09:31N 39°57' W 075°08'0 0.0
2017-Oct-12 09:01N 39°57' W 075°08'0 0.0
2017-Oct-12 08:30N 39°57' W 075°08'0 0.0
2017-Oct-12 08:00N 39°57' W 075°08'0 0.0
2017-Oct-12 07:31N 39°57' W 075°08'0 0.0
2017-Oct-12 07:01N 39°57' W 075°08'0 0.0
2017-Oct-12 06:30N 39°57' W 075°08'0 0.0
2017-Oct-12 06:00N 39°57' W 075°08'0 0.0
2017-Oct-12 05:31N 39°57' W 075°08'0 0.0
2017-Oct-12 05:01N 39°57' W 075°08'0 0.0
2017-Oct-12 04:31N 39°57' W 075°08'0 0.0
2017-Oct-12 04:00N 39°57' W 075°08'0 0.0
2017-Oct-12 03:30N 39°57' W 075°08'0 0.0
2017-Oct-12 03:01N 39°57' W 075°08'0 0.0
2017-Oct-12 02:31N 39°57' W 075°08'0 0.0
2017-Oct-12 02:00N 39°57' W 075°08'0 0.0
2017-Oct-12 01:30N 39°57' W 075°08'0 0.0
2017-Oct-12 01:00N 39°57' W 075°08'0 0.0
2017-Oct-12 00:30N 39°57' W 075°08'0 0.0
2017-Oct-12 00:01N 39°57' W 075°08'0 0.0
2017-Oct-11 23:31N 39°57' W 075°08'0 0.0
2017-Oct-11 23:01N 39°57' W 075°08'0 0.0
2017-Oct-11 22:31N 39°57' W 075°08'0 0.0
2017-Oct-11 22:01N 39°57' W 075°08'0 0.0
2017-Oct-11 21:31N 39°57' W 075°08'0 0.0
2017-Oct-11 21:01N 39°57' W 075°08'0 0.0
2017-Oct-11 20:31N 39°57' W 075°08'0 0.0
2017-Oct-11 20:01N 39°57' W 075°08'5 9.1
2017-Oct-11 19:31N 39°53' W 075°09'510.6
2017-Oct-11 19:00N 39°51' W 075°15'510.5
2017-Oct-11 18:31N 39°50' W 075°22'0 0.7
2017-Oct-11 18:01N 39°50' W 075°22'0 0.0
2017-Oct-11 17:31N 39°50' W 075°22'0 0.0
2017-Oct-11 17:00N 39°50' W 075°22'13 0.8
2017-Oct-11 00:00N 39°57' W 075°08'0 0.0
2017-Oct-10 23:30N 39°57' W 075°08'0 0.0
2017-Oct-10 23:01N 39°57' W 075°08'0 0.0
2017-Oct-10 22:30N 39°57' W 075°08'0 0.0
2017-Oct-10 22:01N 39°57' W 075°08'0 0.0
2017-Oct-10 21:31N 39°57' W 075°08'0 0.0
2017-Oct-10 21:01N 39°57' W 075°08'0 0.0
2017-Oct-10 20:31N 39°57' W 075°08'0 0.0
2017-Oct-10 20:01N 39°57' W 075°08'0 0.0
2017-Oct-10 19:31N 39°57' W 075°08'0 0.0
2017-Oct-10 19:00N 39°57' W 075°08'0 0.0
2017-Oct-10 18:30N 39°57' W 075°08'0 0.0
2017-Oct-10 18:01N 39°57' W 075°08'0 0.0
2017-Oct-10 17:31N 39°57' W 075°08'0 0.0
2017-Oct-10 17:00N 39°57' W 075°08'0 0.0
2017-Oct-10 16:31N 39°57' W 075°08'0 0.0
2017-Oct-10 16:00N 39°57' W 075°08'0 0.0
2017-Oct-10 15:30N 39°57' W 075°08'0 0.0
2017-Oct-10 15:01N 39°57' W 075°08'0 0.0
2017-Oct-10 14:00N 39°57' W 075°08'0 0.0
2017-Oct-10 13:30N 39°57' W 075°08'0 0.0
2017-Oct-10 13:00N 39°57' W 075°08'0 0.0
2017-Oct-10 12:30N 39°57' W 075°08'0 0.0
2017-Oct-10 12:00N 39°57' W 075°08'0 0.0
2017-Oct-10 11:30N 39°57' W 075°08'0 0.0
2017-Oct-10 11:00N 39°57' W 075°08'0 0.0
2017-Oct-10 10:30N 39°57' W 075°08'0 0.0
2017-Oct-10 10:01N 39°57' W 075°08'0 0.0
2017-Oct-10 09:31N 39°57' W 075°08'0 0.0
2017-Oct-10 09:01N 39°57' W 075°08'0 0.0
2017-Oct-10 08:31N 39°57' W 075°08'0 0.0
2017-Oct-10 08:00N 39°57' W 075°08'0 0.0
2017-Oct-10 07:30N 39°57' W 075°08'0 0.0
2017-Oct-10 07:00N 39°57' W 075°08'0 0.0
2017-Oct-10 06:30N 39°57' W 075°08'0 0.0
2017-Oct-10 06:00N 39°57' W 075°08'0 0.0
2017-Oct-10 05:30N 39°57' W 075°08'0 0.0
2017-Oct-10 05:00N 39°57' W 075°08'0 0.0
2017-Oct-10 04:30N 39°57' W 075°08'0 0.0
2017-Oct-10 04:00N 39°57' W 075°08'0 0.0
2017-Oct-10 03:30N 39°57' W 075°08'0 0.0
2017-Oct-10 03:01N 39°57' W 075°08'0 0.0
2017-Oct-10 02:30N 39°57' W 075°08'0 0.0
2017-Oct-10 02:01N 39°57' W 075°08'0 0.0
2017-Oct-10 01:30N 39°57' W 075°08'0 0.0
2017-Oct-10 01:00N 39°57' W 075°08'0 0.0
2017-Oct-10 00:31N 39°57' W 075°08'0 0.0
2017-Oct-10 00:01N 39°57' W 075°08'0 0.0
2017-Oct-09 23:30N 39°57' W 075°08'  
Track history (hours):
 
Tides and Currents Weather Stations Pressure Air Temp Water Temp Dewpoint Dewpoint Depression Visibility Wind Speed Wind Dir Waves Ship Positions

Elizabeth

Owner: WEEKS MARINE, INC., CRANFORD, NJ. More information available from US FCC via Universal Licensing System and Coast Guard Vessel Documentation Center.

Last reported at 2017-Oct-19 23:30 UTC. Time now 2017-Oct-19 23:54 UTC.
Position N 39°50' W 075°22'.

Length 24 m; draft 3.3 m.

Type: . MMSI: 366939170.

Date/timePositionNaut miles runAvg speedWind from/ knotsBaromVisibWave heightAir tempDewpointWater temp
2017-Oct-19 23:30N 39°50' W 075°22'0 0.0
2017-Oct-19 23:01N 39°50' W 075°22'3 5.3
2017-Oct-19 22:30N 39°48' W 075°25'3 5.4
2017-Oct-19 22:00N 39°49' W 075°22'0 0.0
2017-Oct-19 21:30N 39°49' W 075°22'1 2.2
2017-Oct-19 21:00N 39°50' W 075°23'2 3.6
2017-Oct-19 20:30N 39°48' W 075°25'1 1.4
2017-Oct-19 20:00N 39°49' W 075°24'2 3.9
2017-Oct-19 19:31N 39°50' W 075°22'0 0.5
2017-Oct-19 19:00N 39°50' W 075°21'1 1.6
2017-Oct-19 18:30N 39°50' W 075°22'2 4.1
2017-Oct-19 18:01N 39°48' W 075°25'0 0.2
2017-Oct-19 17:31N 39°48' W 075°25'1 1.6
2017-Oct-19 17:00N 39°49' W 075°24'2 4.0
2017-Oct-19 16:31N 39°50' W 075°22'0 0.4
2017-Oct-19 16:01N 39°49' W 075°22'0 0.4
2017-Oct-19 15:31N 39°50' W 075°22'0 0.4
2017-Oct-19 15:00N 39°49' W 075°22'0 0.0
2017-Oct-19 14:30N 39°49' W 075°22'0 0.0
2017-Oct-19 14:00N 39°49' W 075°22'0 0.0
2017-Oct-19 13:31N 39°49' W 075°22'0 0.0
2017-Oct-19 13:00N 39°49' W 075°22'0 0.0
2017-Oct-19 12:30N 39°49' W 075°22'0 0.0
2017-Oct-19 12:00N 39°49' W 075°22'0 0.0
2017-Oct-19 11:30N 39°49' W 075°22'0 0.1
2017-Oct-19 11:00N 39°49' W 075°22'0 0.3
2017-Oct-19 10:30N 39°50' W 075°22'0 0.2
2017-Oct-19 10:00N 39°50' W 075°22'1 1.9
2017-Oct-19 09:30N 39°49' W 075°23'2 3.6
2017-Oct-19 09:01N 39°49' W 075°25'0 0.0
2017-Oct-19 08:30N 39°49' W 075°25'3 5.2
2017-Oct-19 08:00N 39°50' W 075°22'0 0.0
2017-Oct-19 07:30N 39°50' W 075°22'0 0.0
2017-Oct-19 07:00N 39°50' W 075°22'0 0.0
2017-Oct-19 06:30N 39°50' W 075°22'0 0.0
2017-Oct-19 06:00N 39°50' W 075°22'0 0.0
2017-Oct-19 05:30N 39°50' W 075°22'0 0.0
2017-Oct-19 05:00N 39°50' W 075°22'0 0.0
2017-Oct-19 04:30N 39°50' W 075°22'0 0.0
2017-Oct-19 04:00N 39°50' W 075°22'0 0.0
2017-Oct-19 03:30N 39°50' W 075°22'0 0.0
2017-Oct-19 03:00N 39°50' W 075°22'0 0.2
2017-Oct-19 02:30N 39°50' W 075°22'1 2.8
2017-Oct-19 02:00N 39°49' W 075°23'1 2.9
2017-Oct-19 01:31N 39°48' W 075°25'1 2.6
2017-Oct-19 01:00N 39°49' W 075°24'2 3.1
2017-Oct-19 00:30N 39°50' W 075°22'0 0.1
2017-Oct-19 00:00N 39°50' W 075°22'0 0.0
2017-Oct-18 23:30N 39°50' W 075°22'0 0.0
2017-Oct-18 23:00N 39°50' W 075°22'2 4.6
2017-Oct-18 22:31N 39°49' W 075°24'2 4.6
2017-Oct-18 22:01N 39°49' W 075°22'0 0.1
2017-Oct-18 21:30N 39°49' W 075°22'0 0.0
2017-Oct-18 21:00N 39°49' W 075°22'0 0.0
2017-Oct-18 20:30N 39°49' W 075°22'0 0.0
2017-Oct-18 20:01N 39°49' W 075°22'0 0.0
2017-Oct-18 19:30N 39°49' W 075°22'0 0.4
2017-Oct-18 19:00N 39°50' W 075°22'0 0.2
2017-Oct-18 18:31N 39°50' W 075°22'0 0.3
2017-Oct-18 18:01N 39°49' W 075°22'0 0.3
2017-Oct-18 17:30N 39°50' W 075°22'0 0.2
2017-Oct-18 17:00N 39°50' W 075°22'2 3.1
2017-Oct-18 16:31N 39°49' W 075°24'1 2.7
2017-Oct-18 16:01N 39°48' W 075°25'3 5.2
2017-Oct-18 15:31N 39°50' W 075°22'0 0.8
2017-Oct-18 15:00N 39°50' W 075°22'0 0.0
2017-Oct-18 14:00N 39°50' W 075°22'0 0.0
2017-Oct-18 13:30N 39°50' W 075°22'0 0.0
2017-Oct-18 13:01N 39°50' W 075°22'0 0.0
2017-Oct-18 12:30N 39°50' W 075°22'0 0.0
2017-Oct-18 12:00N 39°50' W 075°22'0 0.0
2017-Oct-18 11:31N 39°50' W 075°22'0 0.0
2017-Oct-18 11:01N 39°50' W 075°22'2 4.1
2017-Oct-18 10:30N 39°49' W 075°24'2 3.7
2017-Oct-18 10:01N 39°50' W 075°22'0 0.6
2017-Oct-18 09:30N 39°49' W 075°22'0 0.4
2017-Oct-18 09:01N 39°50' W 075°22'0 0.1
2017-Oct-18 08:31N 39°50' W 075°22'1 2.8
2017-Oct-18 08:00N 39°49' W 075°23'1 2.8
2017-Oct-18 07:30N 39°48' W 075°25'1 1.9
2017-Oct-18 07:01N 39°49' W 075°24'2 3.8
2017-Oct-18 06:31N 39°50' W 075°22'0 0.1
2017-Oct-18 06:01N 39°50' W 075°22'0 0.0
2017-Oct-18 05:31N 39°50' W 075°22'0 0.0
2017-Oct-18 05:01N 39°50' W 075°22'0 0.0
2017-Oct-18 04:30N 39°50' W 075°22'0 0.0
2017-Oct-18 04:01N 39°50' W 075°22'0 0.0
2017-Oct-18 03:31N 39°50' W 075°22'0 0.0
2017-Oct-18 03:01N 39°50' W 075°22'0 0.0
2017-Oct-18 02:30N 39°50' W 075°22'0 0.0
2017-Oct-18 02:01N 39°50' W 075°22'0 0.0
2017-Oct-18 01:30N 39°50' W 075°22'0 0.0
2017-Oct-18 01:00N 39°50' W 075°22'0 0.0
2017-Oct-18 00:30N 39°50' W 075°22'0 0.1
2017-Oct-18 00:00N 39°50' W 075°22'1 2.6
2017-Oct-17 23:30N 39°49' W 075°23'0 0.8
2017-Oct-17 23:00N 39°49' W 075°23'1 1.0
2017-Oct-17 22:31N 39°49' W 075°23'0 0.5
2017-Oct-17 22:00N 39°49' W 075°24'1 2.7
2017-Oct-17 21:30N 39°48' W 075°25'0 0.4
2017-Oct-17 21:01N 39°48' W 075°25'0 0.3
2017-Oct-17 20:30N 39°48' W 075°26'3 5.5
2017-Oct-17 20:00N 39°50' W 075°23'1 1.4
2017-Oct-17 19:31N 39°50' W 075°22'0 0.1
2017-Oct-17 19:00N 39°50' W 075°22'0 0.0
2017-Oct-17 18:30N 39°50' W 075°22'0 0.0
2017-Oct-17 18:00N 39°50' W 075°22'1 1.7
2017-Oct-17 17:31N 39°49' W 075°23'2 4.2
2017-Oct-17 17:00N 39°48' W 075°25'3 5.9
2017-Oct-17 16:31N 39°50' W 075°22'3 5.9
2017-Oct-17 16:00N 39°48' W 075°25'0 0.0
2017-Oct-17 15:31N 39°48' W 075°25'0 0.0
2017-Oct-17 15:01N 39°48' W 075°25'0 0.0
2017-Oct-17 14:30N 39°48' W 075°25'3 5.7
2017-Oct-17 14:01N 39°50' W 075°22'0 0.4
2017-Oct-17 13:31N 39°49' W 075°22'3 5.8
2017-Oct-17 13:00N 39°48' W 075°25'0 0.0
2017-Oct-17 12:30N 39°48' W 075°25'0 0.0
2017-Oct-17 12:00N 39°48' W 075°25'1 2.4
2017-Oct-17 11:30N 39°49' W 075°24'2 3.5
2017-Oct-17 11:00N 39°49' W 075°22'2 4.8
2017-Oct-17 10:30N 39°49' W 075°25'2 4.4
2017-Oct-17 10:01N 39°50' W 075°22'0 0.9
2017-Oct-17 09:31N 39°49' W 075°22'0 0.4
2017-Oct-17 09:01N 39°50' W 075°22'0 0.6
2017-Oct-17 08:30N 39°50' W 075°22'2 3.2
2017-Oct-17 08:01N 39°49' W 075°24'1 2.3
2017-Oct-17 07:31N 39°48' W 075°25'3 5.3
2017-Oct-17 07:01N 39°50' W 075°22'0 0.9
2017-Oct-17 06:30N 39°50' W 075°22'0 0.1
2017-Oct-17 06:00N 39°50' W 075°22'0 0.0
2017-Oct-17 05:30N 39°50' W 075°22'0 0.0
2017-Oct-17 05:00N 39°50' W 075°22'0 0.0
2017-Oct-17 04:30N 39°50' W 075°22'0 0.0
2017-Oct-17 04:00N 39°50' W 075°22'0 0.0
2017-Oct-17 03:30N 39°50' W 075°22'0 0.0
2017-Oct-17 03:00N 39°50' W 075°22'0 0.0
2017-Oct-17 02:30N 39°50' W 075°22'0 0.0
2017-Oct-17 02:00N 39°50' W 075°22'0 0.0
2017-Oct-17 01:30N 39°50' W 075°22'0 0.0
2017-Oct-17 01:00N 39°50' W 075°22'0 0.0
2017-Oct-17 00:30N 39°50' W 075°22'0 0.0
2017-Oct-17 00:00N 39°50' W 075°22'1 2.7
2017-Oct-16 23:31N 39°49' W 075°23'1 1.9
2017-Oct-16 23:01N 39°50' W 075°22'2 3.7
2017-Oct-16 22:30N 39°49' W 075°24'2 4.0
2017-Oct-16 22:01N 39°50' W 075°22'1 1.1
2017-Oct-16 21:30N 39°49' W 075°22'0 0.0
2017-Oct-16 21:00N 39°49' W 075°22'0 0.0
2017-Oct-16 20:31N 39°49' W 075°22'3 5.7
2017-Oct-16 20:01N 39°48' W 075°25'3 5.7
2017-Oct-16 19:30N 39°49' W 075°22'0 0.4
2017-Oct-16 19:01N 39°50' W 075°22'0 0.0
2017-Oct-16 18:31N 39°50' W 075°22'0 0.5
2017-Oct-16 18:01N 39°50' W 075°22'2 3.8
2017-Oct-16 17:31N 39°49' W 075°24'1 1.6
2017-Oct-16 17:01N 39°48' W 075°25'3 5.8
2017-Oct-16 16:31N 39°50' W 075°22'0 0.0
2017-Oct-16 16:01N 39°50' W 075°22'0 0.0
2017-Oct-16 15:30N 39°50' W 075°22'0 0.0
2017-Oct-16 15:00N 39°50' W 075°22'0 0.0
2017-Oct-16 14:01N 39°50' W 075°22'0 0.0
2017-Oct-16 13:30N 39°50' W 075°22'0 0.0
2017-Oct-16 13:01N 39°50' W 075°22'0 0.0
2017-Oct-16 12:30N 39°50' W 075°22'0 0.0
2017-Oct-16 12:00N 39°50' W 075°22'0 0.0
2017-Oct-16 11:30N 39°50' W 075°22'0 0.0
2017-Oct-16 11:01N 39°50' W 075°22'0 0.0
2017-Oct-16 10:30N 39°50' W 075°22'0 0.0
2017-Oct-16 10:00N 39°50' W 075°22'0 0.0
2017-Oct-16 09:30N 39°50' W 075°22'0 0.0
2017-Oct-16 09:00N 39°50' W 075°22'0 0.1
2017-Oct-16 08:31N 39°50' W 075°22'0 0.2
2017-Oct-16 08:00N 39°50' W 075°22'0 0.2
2017-Oct-16 07:30N 39°50' W 075°22'1 1.4
2017-Oct-16 07:00N 39°50' W 075°23'2 3.5
2017-Oct-16 06:30N 39°49' W 075°24'0 1.0
2017-Oct-16 06:00N 39°48' W 075°25'3 5.6
2017-Oct-16 05:31N 39°50' W 075°22'0 0.0
2017-Oct-16 05:00N 39°50' W 075°22'0 0.0
2017-Oct-16 04:30N 39°50' W 075°22'0 0.0
2017-Oct-16 04:00N 39°50' W 075°22'0 0.0
2017-Oct-16 03:31N 39°50' W 075°22'0 0.0
2017-Oct-16 03:00N 39°50' W 075°22'0 0.0
2017-Oct-16 02:30N 39°50' W 075°22'0 0.0
2017-Oct-16 02:00N 39°50' W 075°22'0 0.0
2017-Oct-16 01:30N 39°50' W 075°22'0 0.0
2017-Oct-16 01:00N 39°50' W 075°22'0 0.0
2017-Oct-16 00:30N 39°50' W 075°22'0 0.0
2017-Oct-16 00:00N 39°50' W 075°22'0 0.0
2017-Oct-15 23:30N 39°50' W 075°22'0 0.0
2017-Oct-15 23:00N 39°50' W 075°22'0 0.0
2017-Oct-15 22:30N 39°50' W 075°22'0 0.4
2017-Oct-15 22:00N 39°50' W 075°21'1 2.6
2017-Oct-15 21:30N 39°49' W 075°23'2 3.9
2017-Oct-15 21:00N 39°48' W 075°25'0 0.4
2017-Oct-15 20:31N 39°48' W 075°25'3 5.6
2017-Oct-15 20:00N 39°50' W 075°22'0 0.7
2017-Oct-15 19:31N 39°50' W 075°22'0 0.0
2017-Oct-15 19:01N 39°50' W 075°22'0 0.0
2017-Oct-15 18:31N 39°50' W 075°22'0 0.0
2017-Oct-15 18:00N 39°50' W 075°22'0 0.0
2017-Oct-15 17:30N 39°50' W 075°22'0 0.0
2017-Oct-15 17:00N 39°50' W 075°22'0 0.0
2017-Oct-15 16:30N 39°50' W 075°22'0 0.0
2017-Oct-15 16:00N 39°50' W 075°22'2 4.6
2017-Oct-15 15:30N 39°49' W 075°24'0 0.7
2017-Oct-15 15:00N 39°48' W 075°25'1 1.1
2017-Oct-15 14:01N 39°49' W 075°24'2 3.4
2017-Oct-15 13:31N 39°50' W 075°22'0 0.7
2017-Oct-15 13:01N 39°50' W 075°22'2 3.9
2017-Oct-15 12:30N 39°49' W 075°24'0 0.7
2017-Oct-15 12:01N 39°49' W 075°25'3 5.0
2017-Oct-15 11:31N 39°50' W 075°22'0 0.1
2017-Oct-15 11:01N 39°50' W 075°22'3 5.4
2017-Oct-15 10:30N 39°48' W 075°25'3 5.3
2017-Oct-15 10:01N 39°50' W 075°22'0 0.3
2017-Oct-15 09:30N 39°49' W 075°22'0 0.0
2017-Oct-15 09:00N 39°49' W 075°22'0 0.4
2017-Oct-15 08:30N 39°50' W 075°22'0 0.0
2017-Oct-15 08:00N 39°50' W 075°22'0 0.0
2017-Oct-15 07:31N 39°50' W 075°22'0 0.0
2017-Oct-15 07:00N 39°50' W 075°22'0 0.0
2017-Oct-15 06:30N 39°50' W 075°22'0 0.0
2017-Oct-15 06:00N 39°50' W 075°22'0 0.0
2017-Oct-15 05:30N 39°50' W 075°22'0 0.0
2017-Oct-15 05:01N 39°50' W 075°22'0 0.9
2017-Oct-15 04:31N 39°50' W 075°22'4 8.9
2017-Oct-15 04:01N 39°51' W 075°16'4 8.8
2017-Oct-15 03:30N 39°53' W 075°11'3 5.9
2017-Oct-15 03:01N 39°54' W 075°08'3 6.0
2017-Oct-15 02:30N 39°57' W 075°08'0 0.2
2017-Oct-15 02:01N 39°57' W 075°08'0 0.0
2017-Oct-15 01:31N 39°57' W 075°08'0 0.0
2017-Oct-15 01:01N 39°57' W 075°08'0 0.0
2017-Oct-15 00:31N 39°57' W 075°08'0 0.0
2017-Oct-15 00:01N 39°57' W 075°08'0 0.0
2017-Oct-14 23:30N 39°57' W 075°08'3 5.0
2017-Oct-14 23:01N 39°55' W 075°08'4 8.6
2017-Oct-14 22:31N 39°52' W 075°12'5 9.7
2017-Oct-14 22:00N 39°51' W 075°18'3 6.1
2017-Oct-14 21:31N 39°50' W 075°22'3 5.0
2017-Oct-14 21:01N 39°48' W 075°25'3 5.7
2017-Oct-14 20:31N 39°50' W 075°22'1 1.6
2017-Oct-14 20:00N 39°49' W 075°23'2 4.2
2017-Oct-14 19:30N 39°48' W 075°25'3 5.8
2017-Oct-14 19:00N 39°50' W 075°22'0 0.0
2017-Oct-14 18:31N 39°50' W 075°22'0 0.0
2017-Oct-14 18:01N 39°50' W 075°22'0 0.0
2017-Oct-14 17:31N 39°50' W 075°22'0 0.0
2017-Oct-14 17:01N 39°50' W 075°22'0 0.0
2017-Oct-14 16:30N 39°50' W 075°22'0 0.0
2017-Oct-14 16:01N 39°50' W 075°22'0 0.0
2017-Oct-14 15:31N 39°50' W 075°22'0 0.0
2017-Oct-14 15:01N 39°50' W 075°22'0 0.0
2017-Oct-14 14:31N 39°50' W 075°22'0 0.0
2017-Oct-14 14:00N 39°50' W 075°22'0 0.1
2017-Oct-14 13:31N 39°50' W 075°22'0 0.6
2017-Oct-14 13:00N 39°49' W 075°22'2 3.8
2017-Oct-14 12:31N 39°49' W 075°24'1 2.0
2017-Oct-14 12:00N 39°48' W 075°25'2 3.2
2017-Oct-14 11:30N 39°49' W 075°24'2 3.4
2017-Oct-14 11:01N 39°50' W 075°22'3 6.6
2017-Oct-14 10:31N 39°48' W 075°25'3 5.8
2017-Oct-14 10:01N 39°50' W 075°22'0 0.9
2017-Oct-14 09:30N 39°49' W 075°22'0 0.0
2017-Oct-14 09:01N 39°49' W 075°22'0 0.0
2017-Oct-14 08:31N 39°49' W 075°22'0 0.5
2017-Oct-14 08:01N 39°50' W 075°22'0 0.0
2017-Oct-14 07:30N 39°50' W 075°22'0 0.0
2017-Oct-14 07:01N 39°50' W 075°22'0 0.0
2017-Oct-14 06:31N 39°50' W 075°22'0 0.0
2017-Oct-14 06:00N 39°50' W 075°22'0 0.0
2017-Oct-14 05:30N 39°50' W 075°22'0 0.0
2017-Oct-14 05:00N 39°50' W 075°22'0 0.0
2017-Oct-14 04:30N 39°50' W 075°22'0 0.0
2017-Oct-14 04:00N 39°50' W 075°22'0 0.0
2017-Oct-14 03:30N 39°50' W 075°22'0 0.0
2017-Oct-14 02:31N 39°50' W 075°22'0 0.0
2017-Oct-14 02:31N 39°50' W 075°22'0 0.0
2017-Oct-14 02:01N 39°50' W 075°22'0 0.0
2017-Oct-14 01:28N 39°50' W 075°22'0 0.0
2017-Oct-14 01:01N 39°50' W 075°22'0 0.0
2017-Oct-14 00:30N 39°50' W 075°22'0 0.0
2017-Oct-14 00:00N 39°50' W 075°22'0 0.0
2017-Oct-13 23:30N 39°50' W 075°22'0 0.0
2017-Oct-13 23:01N 39°50' W 075°22'1 1.7
2017-Oct-13 22:31N 39°50' W 075°23'2 3.1
2017-Oct-13 22:00N 39°49' W 075°24'2 4.4
2017-Oct-13 21:30N 39°49' W 075°22'0 0.0
2017-Oct-13 21:01N 39°49' W 075°22'0 0.4
2017-Oct-13 20:30N 39°50' W 075°22'0 0.0
2017-Oct-13 20:00N 39°50' W 075°22'0 0.0
2017-Oct-13 19:30N 39°50' W 075°22'0 0.0
2017-Oct-13 19:00N 39°50' W 075°22'0 0.0
2017-Oct-13 18:31N 39°50' W 075°22'0 0.0
2017-Oct-13 18:01N 39°50' W 075°22'0 0.0
2017-Oct-13 17:30N 39°50' W 075°22'0 0.0
2017-Oct-13 17:00N 39°50' W 075°22'0 0.0
2017-Oct-13 16:31N 39°50' W 075°22'2 3.3
2017-Oct-13 16:01N 39°49' W 075°24'1 2.6
2017-Oct-13 15:31N 39°48' W 075°25'0 0.4
2017-Oct-13 15:01N 39°48' W 075°25'0 0.2
2017-Oct-13 14:30N 39°48' W 075°25'1 1.2
2017-Oct-13 14:00N 39°49' W 075°24'2 4.5
2017-Oct-13 13:31N 39°50' W 075°22'0 0.1
2017-Oct-13 13:01N 39°50' W 075°22'0 0.2
2017-Oct-13 12:31N 39°50' W 075°22'0 0.0
2017-Oct-13 12:01N 39°50' W 075°22'0 0.0
2017-Oct-13 11:31N 39°50' W 075°22'0 0.0
2017-Oct-13 11:01N 39°50' W 075°22'0 0.4
2017-Oct-13 10:30N 39°49' W 075°22'0 0.4
2017-Oct-13 10:01N 39°50' W 075°22'0 0.0
2017-Oct-13 09:31N 39°50' W 075°22'0 0.0
2017-Oct-13 09:00N 39°50' W 075°22'0 0.0
2017-Oct-13 08:31N 39°50' W 075°22'0 0.0
2017-Oct-13 08:01N 39°50' W 075°22'0 0.0
2017-Oct-13 07:31N 39°50' W 075°22'0 0.0
2017-Oct-13 07:00N 39°50' W 075°22'0 0.0
2017-Oct-13 06:30N 39°50' W 075°22'0 0.0
2017-Oct-13 06:00N 39°50' W 075°22'0 0.0
2017-Oct-13 05:31N 39°50' W 075°22'0 0.0
2017-Oct-13 05:00N 39°50' W 075°22'0 0.0
2017-Oct-13 04:30N 39°50' W 075°22'0 0.0
2017-Oct-13 04:01N 39°50' W 075°22'0 0.0
2017-Oct-13 03:30N 39°50' W 075°22'0 0.0
2017-Oct-13 03:00N 39°50' W 075°22'0 0.0
2017-Oct-13 02:30N 39°50' W 075°22'0 0.0
2017-Oct-13 02:01N 39°50' W 075°22'0 0.0
2017-Oct-13 01:31N 39°50' W 075°22'0 0.0
2017-Oct-13 01:01N 39°50' W 075°22'0 0.0
2017-Oct-13 00:31N 39°50' W 075°22'0 0.0
2017-Oct-13 00:01N 39°50' W 075°22'0 0.0
2017-Oct-12 23:31N 39°50' W 075°22'0 0.0
2017-Oct-12 23:01N 39°50' W 075°22'0 0.0
2017-Oct-12 22:30N 39°50' W 075°22'0 0.0
2017-Oct-12 22:01N 39°50' W 075°22'0 0.3
2017-Oct-12 21:31N 39°50' W 075°22'2 3.2
2017-Oct-12 21:01N 39°51' W 075°21'2 4.3
2017-Oct-12 20:31N 39°51' W 075°18'2 4.5
2017-Oct-12 20:00N 39°51' W 075°15'3 5.2
2017-Oct-12 19:31N 39°53' W 075°12'3 5.1
2017-Oct-12 19:01N 39°53' W 075°09'3 5.2
2017-Oct-12 18:31N 39°56' W 075°08'2 3.6
2017-Oct-12 18:01N 39°57' W 075°08'0 0.0
2017-Oct-12 17:31N 39°57' W 075°08'0 0.0
2017-Oct-12 17:01N 39°57' W 075°08'0 0.0
2017-Oct-12 16:31N 39°57' W 075°08'0 0.0
2017-Oct-12 16:01N 39°57' W 075°08'0 0.0
2017-Oct-12 15:31N 39°57' W 075°08'0 0.0
2017-Oct-12 15:01N 39°57' W 075°08'0 0.0
2017-Oct-12 14:31N 39°57' W 075°08'0 0.0
2017-Oct-12 14:01N 39°57' W 075°08'0 0.0
2017-Oct-12 13:31N 39°57' W 075°08'0 0.0
2017-Oct-12 13:01N 39°57' W 075°08'0 0.0
2017-Oct-12 12:31N 39°57' W 075°08'0 0.1
2017-Oct-12 12:01N 39°57' W 075°08'0 0.0
2017-Oct-12 11:31N 39°57' W 075°08'0 0.0
2017-Oct-12 11:01N 39°57' W 075°08'0 0.1
2017-Oct-12 10:31N 39°57' W 075°08'0 0.0
2017-Oct-12 10:00N 39°57' W 075°08'0 0.0
2017-Oct-12 09:31N 39°57' W 075°08'0 0.0
2017-Oct-12 09:01N 39°57' W 075°08'0 0.0
2017-Oct-12 08:30N 39°57' W 075°08'0 0.0
2017-Oct-12 08:00N 39°57' W 075°08'0 0.0
2017-Oct-12 07:31N 39°57' W 075°08'0 0.0
2017-Oct-12 07:01N 39°57' W 075°08'0 0.0
2017-Oct-12 06:30N 39°57' W 075°08'0 0.0
2017-Oct-12 06:00N 39°57' W 075°08'0 0.0
2017-Oct-12 05:31N 39°57' W 075°08'0 0.0
2017-Oct-12 05:01N 39°57' W 075°08'0 0.0
2017-Oct-12 04:31N 39°57' W 075°08'0 0.0
2017-Oct-12 04:00N 39°57' W 075°08'0 0.0
2017-Oct-12 03:30N 39°57' W 075°08'0 0.0
2017-Oct-12 03:01N 39°57' W 075°08'0 0.0
2017-Oct-12 02:31N 39°57' W 075°08'0 0.0
2017-Oct-12 02:00N 39°57' W 075°08'0 0.0
2017-Oct-12 01:30N 39°57' W 075°08'0 0.0
2017-Oct-12 01:00N 39°57' W 075°08'0 0.0
2017-Oct-12 00:30N 39°57' W 075°08'0 0.0
2017-Oct-12 00:01N 39°57' W 075°08'0 0.0
2017-Oct-11 23:31N 39°57' W 075°08'0 0.0
2017-Oct-11 23:01N 39°57' W 075°08'0 0.0
2017-Oct-11 22:31N 39°57' W 075°08'0 0.0
2017-Oct-11 22:01N 39°57' W 075°08'0 0.0
2017-Oct-11 21:31N 39°57' W 075°08'0 0.0
2017-Oct-11 21:01N 39°57' W 075°08'0 0.0
2017-Oct-11 20:31N 39°57' W 075°08'0 0.0
2017-Oct-11 20:01N 39°57' W 075°08'5 9.1
2017-Oct-11 19:31N 39°53' W 075°09'510.6
2017-Oct-11 19:00N 39°51' W 075°15'510.5
2017-Oct-11 18:31N 39°50' W 075°22'0 0.7
2017-Oct-11 18:01N 39°50' W 075°22'0 0.0
2017-Oct-11 17:31N 39°50' W 075°22'0 0.0
2017-Oct-11 17:00N 39°50' W 075°22'13 0.8
2017-Oct-11 00:00N 39°57' W 075°08'0 0.0
2017-Oct-10 23:30N 39°57' W 075°08'0 0.0
2017-Oct-10 23:01N 39°57' W 075°08'0 0.0
2017-Oct-10 22:30N 39°57' W 075°08'0 0.0
2017-Oct-10 22:01N 39°57' W 075°08'0 0.0
2017-Oct-10 21:31N 39°57' W 075°08'0 0.0
2017-Oct-10 21:01N 39°57' W 075°08'0 0.0
2017-Oct-10 20:31N 39°57' W 075°08'0 0.0
2017-Oct-10 20:01N 39°57' W 075°08'0 0.0
2017-Oct-10 19:31N 39°57' W 075°08'0 0.0
2017-Oct-10 19:00N 39°57' W 075°08'0 0.0
2017-Oct-10 18:30N 39°57' W 075°08'0 0.0
2017-Oct-10 18:01N 39°57' W 075°08'0 0.0
2017-Oct-10 17:31N 39°57' W 075°08'0 0.0
2017-Oct-10 17:00N 39°57' W 075°08'0 0.0
2017-Oct-10 16:31N 39°57' W 075°08'0 0.0
2017-Oct-10 16:00N 39°57' W 075°08'0 0.0
2017-Oct-10 15:30N 39°57' W 075°08'0 0.0
2017-Oct-10 15:01N 39°57' W 075°08'0 0.0
2017-Oct-10 14:00N 39°57' W 075°08'0 0.0
2017-Oct-10 13:30N 39°57' W 075°08'0 0.0
2017-Oct-10 13:00N 39°57' W 075°08'0 0.0
2017-Oct-10 12:30N 39°57' W 075°08'0 0.0
2017-Oct-10 12:00N 39°57' W 075°08'0 0.0
2017-Oct-10 11:30N 39°57' W 075°08'0 0.0
2017-Oct-10 11:00N 39°57' W 075°08'0 0.0
2017-Oct-10 10:30N 39°57' W 075°08'0 0.0
2017-Oct-10 10:01N 39°57' W 075°08'0 0.0
2017-Oct-10 09:31N 39°57' W 075°08'0 0.0
2017-Oct-10 09:01N 39°57' W 075°08'0 0.0
2017-Oct-10 08:31N 39°57' W 075°08'0 0.0
2017-Oct-10 08:00N 39°57' W 075°08'0 0.0
2017-Oct-10 07:30N 39°57' W 075°08'0 0.0
2017-Oct-10 07:00N 39°57' W 075°08'0 0.0
2017-Oct-10 06:30N 39°57' W 075°08'0 0.0
2017-Oct-10 06:00N 39°57' W 075°08'0 0.0
2017-Oct-10 05:30N 39°57' W 075°08'0 0.0
2017-Oct-10 05:00N 39°57' W 075°08'0 0.0
2017-Oct-10 04:30N 39°57' W 075°08'0 0.0
2017-Oct-10 04:00N 39°57' W 075°08'0 0.0
2017-Oct-10 03:30N 39°57' W 075°08'0 0.0
2017-Oct-10 03:01N 39°57' W 075°08'0 0.0
2017-Oct-10 02:30N 39°57' W 075°08'0 0.0
2017-Oct-10 02:01N 39°57' W 075°08'0 0.0
2017-Oct-10 01:30N 39°57' W 075°08'0 0.0
2017-Oct-10 01:00N 39°57' W 075°08'0 0.0
2017-Oct-10 00:31N 39°57' W 075°08'0 0.0
2017-Oct-10 00:01N 39°57' W 075°08'0 0.0
2017-Oct-09 23:30N 39°57' W 075°08'  

Dump ship's entire track history